Time;durP1;ratioP1;P1;durP2;ratioP2;P2;SDS_P1;SDS_P2;PMS_P1;PMS_P2;Temp;Humidity;BMP_temperature;BMP_pressure;BME280_temperature;BME280_humidity;BME280_pressure;Samples;Min_cycle;Max_cycle;Signal;HPM_P1;HPM_P2
2023/12/24 00:01:43;;;;;;;1.57;0.90;;;10.90;94.40;;;11.25;55.99;98546.78;4836351;29;113506;-83
2023/12/24 00:04:11;;;;;;;1.20;0.80;;;13.10;95.00;;;11.26;55.51;98551.19;4853474;29;123363;-83
2023/12/24 00:06:38;;;;;;;1.40;0.80;;;10.90;94.20;;;11.28;55.68;98571.00;4836945;29;123181;-84
2023/12/24 00:09:18;;;;;;;0.90;0.70;;;12.60;94.90;;;11.25;55.51;98535.72;4853257;29;114013;-83
2023/12/24 00:11:52;;;;;;;1.00;0.80;;;11.00;94.10;;;11.27;55.53;98544.50;4848654;29;113337;-83
2023/12/24 00:14:29;;;;;;;1.10;0.90;;;11.00;94.10;;;11.28;55.19;98549.72;4853310;29;121750;-84
2023/12/24 00:17:09;;;;;;;1.27;0.90;;;11.00;94.40;;;11.30;55.36;98554.13;4850575;29;123137;-83
2023/12/24 00:19:36;;;;;;;1.93;0.83;;;11.00;94.00;;;11.28;55.56;98537.81;4850906;29;113676;-84
2023/12/24 00:22:06;;;;;;;1.00;0.80;;;12.10;94.50;;;11.28;55.23;98559.94;4839261;29;112782;-81
2023/12/24 00:24:37;;;;;;;1.00;0.80;;;11.00;94.00;;;11.24;55.13;98539.63;4855760;29;121992;-83
2023/12/24 00:27:05;;;;;;;2.10;1.10;;;13.60;94.80;;;11.23;54.95;98529.69;4843786;29;122190;-84
2023/12/24 00:29:34;;;;;;;0.90;0.70;;;11.00;93.80;;;11.21;55.18;98546.63;4827154;29;114935;-83
2023/12/24 00:32:22;;;;;;;1.47;0.80;;;11.00;93.60;;;11.18;55.24;98541.75;4853475;29;114293;-83
2023/12/24 00:34:51;;;;;;;1.77;1.10;;;10.90;93.50;;;11.17;55.14;98529.03;4849846;29;124002;-83
2023/12/24 00:37:24;;;;;;;1.00;0.90;;;10.30;93.40;;;11.20;55.26;98522.03;4850726;29;121993;-84
2023/12/24 00:40:11;;;;;;;1.87;0.87;;;11.00;94.10;;;11.21;55.12;98534.75;4853046;29;114345;-84
2023/12/24 00:42:41;;;;;;;1.00;0.80;;;10.90;93.50;;;11.20;55.04;98538.63;4853595;29;113618;-83
2023/12/24 00:45:16;;;;;;;1.17;0.87;;;13.50;95.00;;;11.18;54.74;98524.34;4852853;29;123982;-84
2023/12/24 00:48:09;;;;;;;1.40;0.70;;;10.90;93.60;;;11.16;54.64;98516.34;4853256;29;123145;-83
2023/12/24 00:50:36;;;;;;;2.67;1.00;;;11.00;93.40;;;11.15;54.50;98502.84;4849158;29;113899;-82
2023/12/24 00:53:29;;;;;;;1.40;0.90;;;13.70;94.90;;;11.14;54.57;98492.94;4834457;29;113742;-84
2023/12/24 00:55:57;;;;;;;5.10;0.90;;;10.80;93.20;;;11.16;54.76;98501.72;4822579;29;123858;-84
2023/12/24 00:58:28;;;;;;;1.03;0.80;;;13.20;94.60;;;11.17;54.32;98500.56;4847917;29;122343;-84
2023/12/24 01:00:55;;;;;;;1.37;0.80;;;10.80;93.40;;;11.18;54.35;98511.31;4851965;29;113693;-83
2023/12/24 01:03:30;;;;;;;1.07;0.80;;;12.30;94.10;;;11.18;53.78;98525.16;4850916;29;114204;-83
2023/12/24 01:06:04;;;;;;;1.20;1.03;;;10.90;93.20;;;11.18;53.89;98493.91;4847952;29;123233;-84
2023/12/24 01:08:31;;;;;;;1.00;0.80;;;10.80;93.10;;;11.15;53.78;98497.31;4843601;29;123127;-83
2023/12/24 01:11:00;;;;;;;1.57;0.93;;;13.40;94.20;;;11.15;54.01;98513.91;4832341;29;113897;-83
2023/12/24 01:13:31;;;;;;;1.13;0.80;;;13.10;94.00;;;11.14;53.91;98509.50;4842767;29;113304;-84
2023/12/24 01:15:57;;;;;;;1.33;0.90;;;10.40;92.70;;;11.14;53.67;98506.75;4867509;29;122468;-84
2023/12/24 01:18:24;;;;;;;1.00;0.80;;;12.30;93.60;;;11.11;53.83;98510.16;4834760;29;123439;-84
2023/12/24 01:20:50;;;;;;;3.63;1.17;;;13.70;94.60;;;11.11;53.56;98508.22;4850650;29;115404;-84
2023/12/24 01:23:19;;;;;;;1.30;0.90;;;13.30;94.10;;;11.08;53.61;98519.13;4863115;29;112994;-84
2023/12/24 01:25:50;;;;;;;3.27;1.10;;;11.50;93.10;;;11.05;53.79;98510.31;4845241;29;123247;-83
2023/12/24 01:28:18;;;;;;;1.13;0.90;;;13.50;94.10;;;11.02;53.79;98510.97;4853408;29;122207;-84
2023/12/24 01:30:46;;;;;;;1.87;0.80;;;11.90;93.90;;;11.01;54.12;98508.50;4849959;29;113712;-83
2023/12/24 01:33:18;;;;;;;0.90;0.77;;;10.80;93.10;;;11.03;53.88;98520.06;4833202;29;111799;-83
2023/12/24 01:35:50;;;;;;;1.10;0.90;;;10.80;93.60;;;11.01;53.97;98536.16;4834128;29;123332;-84
2023/12/24 01:38:28;;;;;;;1.03;0.90;;;12.70;93.90;;;10.97;54.15;98522.19;4833579;29;123192;-84
2023/12/24 01:40:59;;;;;;;1.00;0.80;;;10.80;93.50;;;10.95;54.19;98524.44;4843889;29;113662;-83
2023/12/24 01:43:46;;;;;;;1.67;0.90;;;12.30;94.50;;;10.94;54.63;98500.72;4838013;29;113234;-83
2023/12/24 01:46:29;;;;;;;2.87;0.90;;;10.70;93.00;;;10.93;54.60;98501.03;4849416;29;124179;-83
2023/12/24 01:48:59;;;;;;;2.30;1.20;;;11.00;93.70;;;10.93;54.63;98493.53;4850708;29;121885;-85
2023/12/24 01:51:31;;;;;;;1.00;0.90;;;12.40;94.00;;;10.95;54.78;98494.03;4831641;29;113426;-83
2023/12/24 01:53:58;;;;;;;1.67;1.40;;;11.70;93.50;;;10.93;54.45;98490.78;4837127;29;112431;-84
2023/12/24 01:56:40;;;;;;;1.77;1.00;;;10.60;93.20;;;10.94;54.79;98497.94;4850246;29;124271;-83
2023/12/24 01:59:16;;;;;;;1.10;0.90;;;13.10;94.70;;;10.94;54.42;98492.41;4851937;29;121520;-85
2023/12/24 02:01:54;;;;;;;1.10;0.80;;;12.00;93.60;;;10.94;54.42;98500.72;4866134;29;113878;-84
2023/12/24 02:04:36;;;;;;;2.33;0.80;;;10.60;93.40;;;10.94;54.01;98522.81;4852694;29;112875;-84
2023/12/24 02:07:05;;;;;;;2.50;1.10;;;12.10;93.50;;;10.93;54.15;98507.34;4837370;29;122001;-84
2023/12/24 02:09:36;;;;;;;1.20;1.10;;;10.80;92.90;;;10.94;54.04;98525.59;4848469;29;122585;-85
2023/12/24 02:12:04;;;;;;;2.13;1.10;;;11.40;93.20;;;10.95;54.13;98526.41;4840997;29;114628;-84
2023/12/24 02:14:33;;;;;;;1.80;1.23;;;10.70;92.80;;;10.96;54.13;98503.97;4858005;29;114636;-84
2023/12/24 02:18:04;;;;;;;1.77;1.10;;;11.00;92.90;;;10.97;53.76;98505.59;4857389;29;124714;-81
2023/12/24 02:21:07;;;;;;;2.60;1.17;;;10.70;92.80;;;10.97;53.91;98508.34;4854939;29;124448;-84
2023/12/24 02:23:45;;;;;;;1.37;0.90;;;10.70;92.80;;;11.00;53.86;98523.47;4836599;29;114987;-84
2023/12/24 02:27:01;;;;;;;2.37;1.10;;;10.70;92.80;;;10.95;54.18;98512.56;4854557;29;113632;-84
2023/12/24 02:29:43;;;;;;;3.00;1.20;;;10.70;92.80;;;10.94;53.91;98513.72;4853936;29;124843;-85
2023/12/24 02:32:22;;;;;;;1.20;1.10;;;10.70;92.80;;;10.94;54.25;98520.06;4850009;29;123740;-84
2023/12/24 02:35:06;;;;;;;2.37;0.97;;;10.70;92.80;;;10.95;54.24;98521.69;4834852;29;113450;-83
2023/12/24 02:37:32;;;;;;;1.40;0.90;;;10.70;92.80;;;10.96;54.48;98537.16;4833412;29;111953;-84
2023/12/24 02:40:50;;;;;;;1.00;0.90;;;10.80;92.90;;;10.97;54.17;98533.22;4834098;29;122093;-85
2023/12/24 02:43:18;;;;;;;1.83;1.17;;;10.80;92.90;;;11.00;54.31;98531.78;4829197;29;123107;-84
2023/12/24 02:46:08;;;;;;;1.30;1.00;;;10.70;92.90;;;11.01;54.60;98522.34;4818756;29;114466;-85
2023/12/24 02:48:37;;;;;;;1.00;0.90;;;10.80;93.00;;;11.02;54.33;98513.72;4831850;29;115989;-83
2023/12/24 02:51:04;;;;;;;1.17;0.90;;;10.80;93.00;;;11.01;54.21;98514.84;4813622;29;123467;-85
2023/12/24 02:53:30;;;;;;;1.13;0.90;;;10.70;93.00;;;11.02;54.68;98533.09;4794960;29;123754;-84
2023/12/24 02:55:57;;;;;;;0.90;0.80;;;10.70;93.00;;;11.02;54.53;98516.50;4818235;29;114542;-85
2023/12/24 02:58:28;;;;;;;1.37;0.90;;;10.70;93.10;;;10.99;54.69;98536.50;4831346;29;113654;-85
2023/12/24 03:01:02;;;;;;;1.00;0.80;;;11.30;93.40;;;10.99;54.80;98528.19;4847376;29;124254;-85
2023/12/24 03:03:28;;;;;;;1.00;0.70;;;13.20;94.20;;;10.95;54.50;98527.19;4846075;29;123574;-84
2023/12/24 03:05:57;;;;;;;1.10;0.80;;;10.70;93.20;;;10.94;54.93;98536.66;4854664;29;115637;-83
2023/12/24 03:08:23;;;;;;;1.43;0.97;;;10.70;93.20;;;10.94;55.11;98520.06;4852511;29;114901;-84
2023/12/24 03:11:01;;;;;;;1.20;0.90;;;11.20;93.50;;;10.95;54.79;98538.25;4854511;29;124608;-84
2023/12/24 03:13:57;;;;;;;1.30;0.90;;;12.20;93.90;;;10.93;54.81;98520.38;4852635;29;123156;-84
2023/12/24 03:16:28;;;;;;;1.40;0.90;;;10.70;93.40;;;10.92;55.32;98522.31;4852463;29;113835;-85
2023/12/24 03:18:55;;;;;;;1.73;1.20;;;10.70;93.40;;;10.94;55.09;98516.50;4851860;29;113332;-85
2023/12/24 03:22:04;;;;;;;1.47;0.90;;;10.70;93.40;;;10.90;55.32;98519.06;4851156;29;122249;-86
2023/12/24 03:24:30;;;;;;;1.00;0.90;;;10.70;93.40;;;10.91;55.50;98508.81;4833841;29;123711;-84
2023/12/24 03:26:57;;;;;;;1.30;1.00;;;10.60;93.50;;;10.88;55.52;98507.53;4833085;29;113854;-85
2023/12/24 03:29:29;;;;;;;1.00;0.80;;;10.60;93.50;;;10.87;55.50;98514.19;4832273;29;113661;-84
2023/12/24 03:31:57;;;;;;;1.07;0.90;;;11.60;93.90;;;10.84;55.47;98506.53;4839115;29;123572;-84
2023/12/24 03:34:28;;;;;;;1.10;0.90;;;10.60;93.60;;;10.84;55.78;98521.16;4855035;29;121297;-84
2023/12/24 03:37:06;;;;;;;1.00;0.87;;;11.40;94.00;;;10.83;55.87;98511.25;4848708;29;113981;-84
2023/12/24 03:39:34;;;;;;;1.10;0.80;;;10.60;93.60;;;10.86;55.61;98526.38;4834728;29;113584;-85
2023/12/24 03:42:07;;;;;;;1.50;1.00;;;10.60;93.60;;;10.86;55.86;98515.31;4834418;29;123449;-84
2023/12/24 03:44:58;;;;;;;1.00;0.80;;;10.60;93.60;;;10.87;55.65;98503.13;4836844;29;123276;-84
2023/12/24 03:47:34;;;;;;;1.20;0.93;;;10.60;93.60;;;10.87;55.81;98502.31;4836008;29;113501;-85
2023/12/24 03:50:26;;;;;;;1.60;1.00;;;10.60;93.70;;;10.88;55.67;98510.31;4833803;29;113365;-84
2023/12/24 03:52:58;;;;;;;1.00;0.90;;;10.60;93.70;;;10.89;55.61;98508.34;4840193;29;123656;-85
2023/12/24 03:55:26;;;;;;;1.13;1.00;;;10.60;93.70;;;10.88;55.47;98515.00;4850427;29;123301;-85
2023/12/24 03:58:08;;;;;;;1.07;0.90;;;11.70;94.20;;;10.88;55.41;98493.72;4852965;29;114809;-84
2023/12/24 04:00:34;;;;;;;1.93;0.90;;;11.30;94.00;;;10.86;55.82;98507.03;4838260;29;114590;-84
2023/12/24 04:03:29;;;;;;;1.10;1.00;;;10.60;93.60;;;10.87;55.21;98507.84;4845480;29;123794;-85
2023/12/24 04:05:58;;;;;;;1.23;0.90;;;10.60;93.60;;;10.87;55.51;98485.72;4841205;29;121497;-84
2023/12/24 04:12:22;;;;;;;1.43;1.00;;;11.60;94.10;;;10.86;55.55;98476.63;4860242;29;114994;-83
2023/12/24 04:16:11;;;;;;;0.90;0.80;;;10.60;93.60;;;10.88;55.57;98485.44;4857207;29;123599;-84
2023/12/24 04:19:05;;;;;;;1.50;1.10;;;12.10;94.20;;;10.88;55.70;98492.88;4875670;29;123265;-84
2023/12/24 04:21:38;;;;;;;1.30;1.00;;;10.20;93.40;;;10.88;55.23;98474.38;4858073;29;112280;-84
2023/12/24 04:24:12;;;;;;;1.20;1.00;;;10.60;93.50;;;10.90;55.00;98485.09;4851002;29;114707;-85
2023/12/24 04:26:45;;;;;;;2.00;1.00;;;12.30;94.20;;;10.90;55.12;98482.31;4854133;29;123559;-85
2023/12/24 04:29:24;;;;;;;1.30;1.20;;;10.60;93.50;;;10.91;55.38;98482.00;4839286;29;123487;-84
2023/12/24 04:31:57;;;;;;;2.30;1.10;;;10.70;93.50;;;10.92;55.23;98486.38;4854184;29;113602;-84
2023/12/24 04:34:28;;;;;;;1.53;1.10;;;13.10;94.50;;;10.91;54.95;98482.00;4856180;29;112778;-83
2023/12/24 04:37:14;;;;;;;1.37;0.93;;;10.60;93.40;;;10.91;55.27;98479.25;4824079;29;123857;-84
2023/12/24 04:39:44;;;;;;;2.10;1.00;;;10.60;93.40;;;10.90;55.15;98483.13;4857912;29;122724;-85
2023/12/24 04:42:29;;;;;;;1.43;1.07;;;11.00;93.60;;;10.91;55.10;98476.47;4855776;29;112808;-84
2023/12/24 04:44:56;;;;;;;1.30;0.80;;;10.70;93.50;;;10.91;55.03;98473.72;4859127;29;112684;-84
2023/12/24 04:47:53;;;;;;;1.17;0.87;;;10.70;93.50;;;10.90;55.03;98465.75;4838649;29;123591;-85
2023/12/24 04:50:23;;;;;;;1.20;1.10;;;10.70;93.50;;;10.90;55.34;98480.38;4840723;29;123868;-84
2023/12/24 04:52:50;;;;;;;1.27;1.03;;;11.90;94.00;;;10.88;55.29;98443.13;4840888;29;112886;-85
2023/12/24 04:55:16;;;;;;;1.00;0.87;;;10.70;93.50;;;10.87;55.53;98439.56;4831193;29;112942;-84
2023/12/24 04:58:05;;;;;;;1.20;0.90;;;10.60;93.50;;;10.89;55.43;98455.81;4841993;29;123579;-83
2023/12/24 05:00:45;;;;;;;1.20;1.10;;;10.70;93.60;;;10.88;55.86;98443.13;4835888;29;123430;-84
2023/12/24 05:03:29;;;;;;;1.93;0.83;;;10.60;93.60;;;10.89;55.96;98455.81;4835813;29;114035;-84
2023/12/24 05:06:11;;;;;;;1.50;1.00;;;10.60;93.60;;;10.86;55.73;98413.06;4798354;29;113548;-84
2023/12/24 05:09:01;;;;;;;3.13;1.10;;;10.60;93.90;;;10.82;55.96;98406.53;4809922;29;124826;-84
2023/12/24 05:11:40;;;;;;;1.37;0.80;;;10.60;93.70;;;10.80;56.18;98392.22;4796581;29;124206;-84
2023/12/24 05:14:09;;;;;;;6.50;0.90;;;10.60;93.80;;;10.76;55.97;98386.56;4817183;29;114005;-84
2023/12/24 05:17:02;;;;;;;1.10;1.00;;;10.50;93.80;;;10.77;56.39;98392.88;4805510;29;114582;-83
2023/12/24 05:19:38;;;;;;;1.33;1.10;;;10.50;93.80;;;10.74;56.19;98399.06;4803461;29;123977;-83
2023/12/24 05:23:05;;;;;;;1.60;1.37;;;10.50;93.80;;;10.73;56.19;98367.84;4801958;29;123196;-83
2023/12/24 05:25:37;;;;;;;3.20;1.20;;;10.50;93.90;;;10.72;56.11;98390.28;4804680;29;113250;-84
2023/12/24 05:28:06;;;;;;;1.43;0.80;;;12.70;94.90;;;10.69;56.65;98404.75;4820073;29;114799;-83
2023/12/24 05:30:42;;;;;;;1.00;0.90;;;10.40;93.90;;;10.69;56.39;98401.97;4819688;29;124069;-83
2023/12/24 05:33:09;;;;;;;1.00;0.73;;;9.50;94.10;;;10.70;56.33;98398.09;4821472;29;123188;-83
2023/12/24 05:35:46;;;;;;;1.10;1.00;;;11.40;94.40;;;10.69;56.56;98401.97;4819555;29;114224;-82
2023/12/24 05:38:30;;;;;;;2.33;0.87;;;11.60;94.60;;;10.69;56.47;98393.69;4859579;29;113716;-83
2023/12/24 05:40:58;;;;;;;1.03;0.93;;;12.10;94.80;;;10.69;56.90;98396.44;4857120;29;123731;-82
2023/12/24 05:43:36;;;;;;;1.10;0.80;;;10.40;94.10;;;10.69;56.48;98415.78;4855499;29;123494;-81
2023/12/24 05:46:13;;;;;;;3.00;0.90;;;11.40;94.50;;;10.67;56.33;98415.31;4840726;29;113593;-84
2023/12/24 05:48:43;;;;;;;1.70;1.00;;;10.50;94.10;;;10.68;56.89;98442.63;4857329;29;114615;-82
2023/12/24 05:51:10;;;;;;;0.90;0.80;;;10.40;94.10;;;10.70;56.83;98425.72;4840021;29;123679;-83
2023/12/24 05:53:45;;;;;;;1.30;0.90;;;7.90;93.60;;;10.71;56.69;98435.63;4860125;29;123117;-81
2023/12/24 05:56:17;;;;;;;6.17;0.90;;;9.50;94.20;;;10.68;56.35;98411.41;4856636;29;114982;-84
2023/12/24 05:58:58;;;;;;;2.50;1.00;;;12.50;95.10;;;10.69;56.48;98413.03;4854733;29;113645;-83
2023/12/24 06:01:25;;;;;;;1.43;0.87;;;10.40;94.20;;;10.69;56.78;98408.31;4855825;29;122991;-84
2023/12/24 06:03:53;;;;;;;1.17;0.80;;;10.40;94.50;;;10.74;56.71;98421.16;4856237;29;123424;-84
2023/12/24 06:06:31;;;;;;;1.63;1.20;;;10.50;94.30;;;10.77;57.03;98417.75;4854071;29;112053;-84
2023/12/24 06:09:08;;;;;;;1.00;0.80;;;10.90;94.40;;;10.81;56.49;98413.22;4854493;29;113844;-84
2023/12/24 06:11:44;;;;;;;1.97;1.13;;;11.90;94.90;;;10.83;56.69;98408.19;4850364;29;124116;-83
2023/12/24 06:14:13;;;;;;;0.90;0.80;;;13.10;95.40;;;10.84;56.89;98401.50;4851760;29;123686;-83
2023/12/24 06:16:44;;;;;;;1.67;1.00;;;10.70;94.30;;;10.84;56.49;98393.22;4852530;29;112763;-84
2023/12/24 06:19:24;;;;;;;1.00;0.70;;;10.60;94.30;;;10.85;56.98;98378.25;4851901;29;113392;-84
2023/12/24 06:21:52;;;;;;;2.07;0.80;;;12.90;95.40;;;10.84;57.02;98388.50;4847512;29;123334;-84
2023/12/24 06:24:21;;;;;;;1.50;1.00;;;12.90;95.40;;;10.85;57.04;98389.31;4843549;29;123152;-83
2023/12/24 06:26:53;;;;;;;1.20;0.80;;;10.50;94.40;;;10.86;56.81;98399.25;4847593;29;113558;-84
2023/12/24 06:29:37;;;;;;;1.80;0.70;;;12.60;95.40;;;10.88;56.87;98383.16;4833677;29;114009;-84
2023/12/24 06:32:17;;;;;;;1.00;0.90;;;10.60;94.50;;;10.88;57.18;98372.09;4851550;29;123642;-85
2023/12/24 06:35:05;;;;;;;1.00;0.80;;;10.60;94.40;;;10.90;57.15;98375.34;4851450;29;123000;-84
2023/12/24 06:37:48;;;;;;;0.90;0.80;;;10.60;94.40;;;10.92;57.01;98370.31;4835270;29;113226;-84
2023/12/24 06:40:42;;;;;;;1.20;0.90;;;10.60;94.70;;;10.92;57.17;98366.72;4849013;29;114409;-84
2023/12/24 06:43:11;;;;;;;0.90;0.80;;;10.70;94.50;;;10.95;57.43;98361.34;4853714;29;122185;-84
2023/12/24 06:45:38;;;;;;;1.20;0.90;;;10.60;94.50;;;10.96;57.27;98360.25;4834945;29;122036;-83
2023/12/24 06:48:15;;;;;;;1.20;0.90;;;10.70;94.50;;;11.00;57.03;98365.91;4844164;29;114019;-84
2023/12/24 06:50:46;;;;;;;1.77;0.80;;;10.80;94.50;;;11.03;56.79;98349.47;4850205;29;114420;-84
2023/12/24 06:53:13;;;;;;;1.00;0.80;;;11.50;94.90;;;11.05;57.04;98349.97;4850015;29;122982;-84
2023/12/24 06:55:47;;;;;;;0.93;0.80;;;10.80;94.50;;;11.10;56.67;98350.97;4851824;29;122416;-84
2023/12/24 06:58:26;;;;;;;0.90;0.80;;;12.30;95.20;;;11.13;56.52;98355.84;4850355;29;113596;-84
2023/12/24 07:00:58;;;;;;;1.53;1.10;;;10.80;94.50;;;11.11;56.89;98361.69;4850766;29;113624;-84
2023/12/24 07:03:26;;;;;;;0.97;0.80;;;10.80;94.50;;;11.12;56.88;98356.94;4847480;29;123270;-84
2023/12/24 07:05:56;;;;;;;1.20;0.90;;;12.70;95.40;;;11.12;57.30;98357.75;4852252;29;121845;-84
2023/12/24 07:08:31;;;;;;;1.33;0.90;;;12.00;95.10;;;11.13;56.68;98356.63;4850147;29;113929;-84
2023/12/24 07:11:00;;;;;;;1.10;0.90;;;10.80;94.60;;;11.14;57.20;98357.44;4820945;29;113827;-84
2023/12/24 07:13:26;;;;;;;1.90;0.80;;;10.90;94.60;;;11.15;57.25;98353.53;4851459;29;123790;-84
2023/12/24 07:15:59;;;;;;;1.67;0.90;;;10.80;94.50;;;11.15;57.11;98343.31;4853909;29;123202;-84
2023/12/24 07:18:26;;;;;;;1.20;1.00;;;12.00;95.10;;;11.16;56.67;98344.91;4853104;29;112190;-83
2023/12/24 07:21:06;;;;;;;1.30;1.07;;;10.80;94.50;;;11.15;56.58;98353.53;4855592;29;113634;-83
2023/12/24 07:23:34;;;;;;;1.00;0.90;;;11.30;94.80;;;11.13;56.91;98350.31;4853101;29;121829;-84
2023/12/24 07:26:07;;;;;;;1.63;0.80;;;10.80;94.60;;;11.15;57.09;98336.94;4851946;29;122506;-84
2023/12/24 07:28:41;;;;;;;1.50;1.00;;;10.80;94.60;;;11.17;57.04;98345.72;4849752;29;114859;-84
2023/12/24 07:31:15;;;;;;;1.07;0.90;;;10.80;94.60;;;11.19;57.10;98348.97;4853161;29;113898;-84
2023/12/24 07:33:49;;;;;;;1.23;0.90;;;10.90;94.70;;;11.20;57.33;98350.59;4850573;29;122376;-84
2023/12/24 07:36:23;;;;;;;1.20;0.90;;;10.90;94.70;;;11.20;57.07;98345.91;4834061;29;123179;-85
2023/12/24 07:39:03;;;;;;;1.20;0.90;;;10.90;94.90;;;11.22;57.24;98345.56;4841337;29;114242;-83
2023/12/24 07:41:31;;;;;;;1.63;0.90;;;12.30;95.40;;;11.23;57.22;98336.09;4856009;29;112953;-84
2023/12/24 07:44:16;;;;;;;0.90;0.80;;;10.90;94.90;;;11.22;57.72;98331.72;4850811;29;123983;-83
2023/12/24 07:46:54;;;;;;;1.00;0.80;;;10.90;94.90;;;11.23;57.34;98325.06;4852039;29;123527;-84
2023/12/24 07:49:26;;;;;;;0.90;0.80;;;10.90;95.10;;;11.25;57.32;98323.59;4852372;29;113843;-84
2023/12/24 07:52:53;;;;;;;0.90;0.80;;;13.60;96.40;;;11.25;57.63;98317.25;4853613;29;115012;-85
2023/12/24 07:55:20;;;;;;;1.20;0.80;;;10.90;95.00;;;11.23;57.84;98312.06;4852626;29;122849;-84
2023/12/24 07:58:01;;;;;;;1.10;0.80;;;12.40;96.00;;;11.22;58.20;98317.91;4854382;29;122181;-83
2023/12/24 08:00:29;;;;;;;1.10;0.80;;;10.90;95.80;;;11.22;58.26;98320.66;4838079;29;112689;-83
2023/12/24 08:03:01;;;;;;;0.97;0.80;;;13.40;96.60;;;11.22;58.18;98328.97;4837682;29;113556;-83
2023/12/24 08:05:43;;;;;;;1.27;0.80;;;11.10;95.50;;;11.21;57.94;98341.19;4851886;29;123285;-84
2023/12/24 08:08:18;;;;;;;1.37;0.90;;;11.50;95.90;;;11.18;58.71;98328.81;4851185;29;124126;-83
2023/12/24 08:10:46;;;;;;;1.00;0.83;;;10.90;95.50;;;11.15;58.50;98328.66;4849694;29;113726;-86
2023/12/24 08:13:14;;;;;;;1.00;0.87;;;11.50;96.10;;;11.17;58.13;98349.28;4852001;29;113309;-83
2023/12/24 08:15:40;;;;;;;1.33;1.00;;;12.70;96.30;;;11.17;58.40;98345.72;4854481;29;122811;-83
2023/12/24 08:18:11;;;;;;;1.13;0.70;;;11.40;95.70;;;11.19;58.79;98343.44;4850894;29;122925;-84
2023/12/24 08:20:37;;;;;;;2.70;0.97;;;13.60;96.80;;;11.13;58.53;98344.78;4850868;29;115310;-83
2023/12/24 08:23:11;;;;;;;0.93;0.70;;;12.70;96.40;;;11.17;58.78;98342.97;4851213;29;114123;-82
2023/12/24 08:25:45;;;;;;;0.90;0.80;;;12.40;96.20;;;11.16;58.51;98339.38;4850295;29;122824;-83
2023/12/24 08:28:18;;;;;;;0.80;0.70;;;12.70;96.50;;;11.20;58.88;98334.00;4837012;29;121939;-84
2023/12/24 08:30:47;;;;;;;1.27;0.83;;;10.90;95.80;;;11.21;58.63;98327.34;4849595;29;113576;-84
2023/12/24 08:33:23;;;;;;;1.20;0.80;;;13.50;96.70;;;11.20;58.64;98323.78;4851314;29;113175;-83
2023/12/24 08:35:50;;;;;;;0.90;0.70;;;12.60;96.50;;;11.24;58.65;98312.88;4867201;29;122320;-83
2023/12/24 08:38:22;;;;;;;1.00;0.90;;;11.00;95.60;;;11.20;58.62;98285.06;4851388;29;123852;-84
2023/12/24 08:40:50;;;;;;;1.10;0.90;;;10.90;95.70;;;11.24;58.69;98290.75;4836465;29;112377;-84
2023/12/24 08:43:16;;;;;;;0.90;0.80;;;12.10;96.30;;;11.24;58.32;98290.75;4850429;29;113555;-82
2023/12/24 08:45:42;;;;;;;2.50;1.00;;;13.10;96.80;;;11.25;58.83;98282.09;4862480;29;123568;-82
2023/12/24 08:48:13;;;;;;;0.90;0.70;;;10.90;95.70;;;11.23;58.59;98264.22;4852083;29;123355;-84
2023/12/24 08:50:52;;;;;;;1.00;0.90;;;13.70;97.20;;;11.20;58.69;98251.06;4850802;29;113815;-82
2023/12/24 08:53:23;;;;;;;2.40;0.73;;;13.50;96.80;;;11.27;59.10;98267.97;4849054;29;113178;-82
2023/12/24 08:55:50;;;;;;;1.00;0.80;;;13.60;97.30;;;11.29;58.92;98282.28;4851054;29;123715;-84
2023/12/24 08:58:27;;;;;;;0.90;0.70;;;13.60;96.90;;;11.29;58.71;98260.16;4853978;29;121897;-84
2023/12/24 09:01:04;;;;;;;1.00;0.77;;;12.00;96.30;;;11.29;58.89;98262.91;4850882;29;114645;-84
2023/12/24 09:03:32;;;;;;;0.90;0.70;;;12.20;96.30;;;11.30;58.88;98286.66;4855369;29;113096;-84
2023/12/24 09:05:58;;;;;;;1.00;0.87;;;11.30;95.90;;;11.30;58.96;98283.88;4850303;29;123131;-84
2023/12/24 09:08:27;;;;;;;1.67;0.90;;;12.90;96.60;;;11.35;59.20;98280.94;4849782;29;123628;-84
2023/12/24 09:10:53;;;;;;;0.97;0.83;;;12.80;96.70;;;11.40;59.02;98296.56;4839080;29;114263;-83
2023/12/24 09:13:21;;;;;;;1.00;0.73;;;11.80;96.30;;;11.39;59.31;98304.06;4838392;29;114713;-84
2023/12/24 09:15:48;;;;;;;1.20;0.80;;;11.90;96.40;;;11.41;59.86;98306.47;4856004;29;123966;-83
2023/12/24 09:18:15;;;;;;;0.90;0.80;;;11.70;96.50;;;11.41;60.18;98298.97;4852156;29;123078;-83
2023/12/24 09:20:57;;;;;;;1.00;0.80;;;12.40;97.00;;;11.39;60.46;98337.25;4850821;29;113184;-84
2023/12/24 09:23:30;;;;;;;1.40;0.80;;;12.60;97.20;;;11.39;60.66;98331.72;4849775;29;113581;-81
2023/12/24 09:25:56;;;;;;;1.00;0.80;;;11.10;96.80;;;11.36;61.87;98315.75;4849140;29;124502;-82
2023/12/24 09:28:24;;;;;;;1.20;0.70;;;11.10;97.10;;;11.36;61.70;98332.34;4851598;29;123558;-83
2023/12/24 09:30:57;;;;;;;1.03;0.80;;;11.10;97.30;;;11.35;61.78;98341.78;4850874;29;113539;-83
2023/12/24 09:33:25;;;;;;;1.10;0.77;;;11.10;97.50;;;11.30;62.34;98336.44;4850082;29;113587;-84
2023/12/24 09:35:56;;;;;;;1.10;0.73;;;11.10;97.60;;;11.29;62.39;98323.75;4835358;29;121850;-83
2023/12/24 09:38:23;;;;;;;1.43;0.70;;;11.00;97.80;;;11.26;62.59;98332.72;4849853;29;124012;-83
2023/12/24 09:40:58;;;;;;;3.00;1.70;;;11.00;97.70;;;11.27;62.57;98328.78;4850156;29;114632;-83
2023/12/24 09:43:39;;;;;;;0.90;0.77;;;11.00;97.90;;;11.23;63.11;98330.56;4853695;29;112756;-83
2023/12/24 09:46:07;;;;;;;0.90;0.80;;;11.20;98.10;;;11.23;63.22;98319.53;4836234;29;121847;-83
2023/12/24 09:48:34;;;;;;;1.00;0.70;;;12.70;98.80;;;11.21;63.35;98319.88;4852079;29;123136;-83
2023/12/24 09:51:08;;;;;;;16.23;1.17;;;11.10;98.20;;;11.24;63.58;98323.94;4853994;29;112439;-83
2023/12/24 09:53:44;;;;;;;4.20;0.93;;;11.10;98.40;;;11.22;63.85;98287.50;4854858;29;113721;-83
2023/12/24 09:56:21;;;;;;;1.10;0.80;;;10.90;98.30;;;11.22;63.45;98328.97;4865913;29;124016;-84
2023/12/24 09:58:59;;;;;;;1.20;0.87;;;11.00;98.50;;;11.22;63.68;98315.13;4851499;29;123767;-84
2023/12/24 10:01:44;;;;;;;1.30;0.87;;;10.90;98.50;;;11.20;64.15;98306.34;4851228;29;114773;-84
2023/12/24 10:04:18;;;;;;;1.10;0.70;;;10.90;98.70;;;11.18;64.08;98323.28;4850213;29;114302;-84
2023/12/24 10:06:57;;;;;;;2.13;1.07;;;11.10;98.90;;;11.19;64.10;98326.88;4848703;29;124151;-82
2023/12/24 10:09:50;;;;;;;1.10;0.90;;;12.00;99.50;;;11.16;64.28;98325.56;4848908;29;123159;-82
2023/12/24 10:12:21;;;;;;;1.30;0.90;;;10.90;98.80;;;11.19;64.07;98324.09;4848049;29;114235;-84
2023/12/24 10:14:56;;;;;;;1.00;0.80;;;10.90;98.60;;;11.20;64.19;98339.53;4863637;29;113571;-82
2023/12/24 10:18:18;;;;;;;1.73;0.83;;;10.90;98.60;;;11.23;63.62;98316.75;4844320;29;123344;-82
2023/12/24 10:21:11;;;;;;;1.37;0.83;;;10.90;98.60;;;11.25;63.63;98318.06;4852887;29;123362;-82
2023/12/24 10:23:41;;;;;;;1.20;0.80;;;10.90;98.60;;;11.29;63.54;98309.94;4834312;29;113649;-84
2023/12/24 10:26:12;;;;;;;1.00;0.70;;;11.00;98.50;;;11.33;63.08;98310.88;4851620;29;111931;-84
2023/12/24 10:29:00;;;;;;;1.37;0.90;;;11.10;98.50;;;11.29;63.05;98298.88;4852544;29;122019;-82
2023/12/24 10:31:27;;;;;;;1.00;0.80;;;11.10;98.30;;;11.36;62.60;98298.34;4850179;29;123603;-83
2023/12/24 10:34:18;;;;;;;1.10;0.83;;;11.10;98.50;;;11.36;62.31;98310.22;4851647;29;113986;-83
2023/12/24 10:36:59;;;;;;;1.30;0.87;;;11.10;98.00;;;11.40;62.39;98293.78;4851086;29;114352;-85
2023/12/24 10:39:29;;;;;;;1.33;0.80;;;11.20;98.00;;;11.43;61.94;98282.88;4835653;29;123523;-84
2023/12/24 10:42:10;;;;;;;0.90;0.70;;;11.10;97.80;;;11.46;62.10;98296.03;4851859;29;123302;-84
2023/12/24 10:44:39;;;;;;;1.07;0.90;;;11.20;97.80;;;11.47;61.79;98286.63;4849903;29;113351;-82
2023/12/24 10:47:09;;;;;;;1.00;0.80;;;11.20;97.70;;;11.52;61.42;98285.59;4837284;29;113105;-83
2023/12/24 10:49:37;;;;;;;0.90;0.80;;;11.20;97.60;;;11.54;61.24;98299.13;4834910;29;123822;-83
2023/12/24 10:52:10;;;;;;;1.83;0.90;;;11.70;97.70;;;11.57;61.02;98298.44;4837468;29;122083;-85